createdAt,value
2019-01-16T00:02:27.222Z,100816.03
2019-01-16T00:05:15.691Z,100809.91
2019-01-16T00:08:16.313Z,100810.36
2019-01-16T00:10:53.523Z,100820.30
2019-01-16T00:13:29.605Z,100823.34
2019-01-16T00:16:18.427Z,100810.97
2019-01-16T00:19:05.799Z,100813.97
2019-01-16T00:21:53.136Z,100811.92
2019-01-16T00:24:48.196Z,100817.59
2019-01-16T00:27:32.544Z,100816.08
2019-01-16T00:30:18.969Z,100815.50
2019-01-16T00:32:58.608Z,100802.97
2019-01-16T00:35:36.456Z,100804.18
2019-01-16T00:38:28.233Z,100804.62
2019-01-16T00:41:14.856Z,100804.62
2019-01-16T00:43:57.584Z,100800.20
2019-01-16T00:46:36.821Z,100793.26
2019-01-16T00:49:28.086Z,100796.30
2019-01-16T00:52:22.704Z,100798.45
2019-01-16T00:55:14.445Z,100789.28
2019-01-16T00:58:01.865Z,100791.95
2019-01-16T01:00:41.460Z,100778.97
2019-01-16T01:03:29.094Z,100773.33
2019-01-16T01:06:18.508Z,100775.93
2019-01-16T01:08:55.733Z,100761.11
2019-01-16T01:11:34.492Z,100759.64
2019-01-16T01:14:27.513Z,100755.37
2019-01-16T01:17:14.617Z,100745.84
2019-01-16T01:20:18.491Z,100748.80
2019-01-16T01:23:01.234Z,100752.25
2019-01-16T01:25:53.077Z,100748.72
2019-01-16T01:28:37.710Z,100749.56
2019-01-16T01:31:16.708Z,100753.31
2019-01-16T01:34:04.116Z,100750.55
2019-01-16T01:36:44.672Z,100746.28
2019-01-16T01:39:45.396Z,100752.38
2019-01-16T01:42:32.936Z,100745.89
2019-01-16T01:45:29.566Z,100748.34
2019-01-16T01:48:24.930Z,100750.09
2019-01-16T01:51:13.627Z,100744.14
2019-01-16T01:54:01.332Z,100746.51
2019-01-16T01:57:05.569Z,100748.17
2019-01-16T01:59:54.261Z,100745.27
2019-01-16T02:02:41.682Z,100748.70
2019-01-16T02:05:29.584Z,100755.87
2019-01-16T02:08:09.508Z,100744.59
2019-01-16T02:11:03.211Z,100743.20
2019-01-16T02:13:45.101Z,100738.18
2019-01-16T02:16:32.481Z,100738.45
2019-01-16T02:19:09.476Z,100736.56
2019-01-16T02:22:01.442Z,100735.27
2019-01-16T02:24:49.013Z,100736.02
2019-01-16T02:30:32.338Z,100720.71
2019-01-16T02:33:19.846Z,100718.96
2019-01-16T02:36:08.688Z,100717.30
2019-01-16T02:39:00.079Z,100713.41
2019-01-16T02:41:38.744Z,100715.15
2019-01-16T02:44:23.173Z,100709.87
2019-01-16T02:47:19.521Z,100709.87
2019-01-16T02:50:13.880Z,100706.91
2019-01-16T02:53:00.924Z,100707.72
2019-01-16T02:55:48.567Z,100707.66
2019-01-16T02:58:29.917Z,100702.92
2019-01-16T03:01:14.965Z,100703.23
2019-01-16T03:04:02.423Z,100694.13
2019-01-16T03:06:49.780Z,100702.14
2019-01-16T03:09:29.590Z,100691.75
2019-01-16T03:12:33.717Z,100690.45
2019-01-16T03:15:34.622Z,100680.06
2019-01-16T03:18:35.640Z,100675.67
2019-01-16T03:21:19.029Z,100667.07
2019-01-16T03:24:17.710Z,100663.98
2019-01-16T03:27:04.833Z,100662.33
2019-01-16T03:29:52.225Z,100659.81
2019-01-16T03:32:36.146Z,100654.23
2019-01-16T03:35:39.761Z,100660.18
2019-01-16T03:38:43.654Z,100662.41
2019-01-16T03:41:41.598Z,100656.38
2019-01-16T03:44:25.489Z,100658.52
2019-01-16T03:47:14.169Z,100658.97
2019-01-16T03:49:55.769Z,100654.31
2019-01-16T03:52:47.379Z,100643.30
2019-01-16T03:55:51.187Z,100645.53
2019-01-16T04:02:00.617Z,100648.19
2019-01-16T04:04:39.657Z,100637.13
2019-01-16T04:07:26.938Z,100628.97
2019-01-16T04:10:10.030Z,100636.67
2019-01-16T04:12:50.956Z,100631.09
2019-01-16T04:15:51.954Z,100620.23
2019-01-16T04:18:42.885Z,100608.55
2019-01-16T04:21:34.940Z,100609.30
2019-01-16T04:24:24.696Z,100609.85
2019-01-16T04:27:06.197Z,100606.34
2019-01-16T04:30:03.889Z,100609.48
2019-01-16T04:32:51.168Z,100595.75
2019-01-16T04:35:38.212Z,100594.90
2019-01-16T04:38:25.596Z,100591.84
2019-01-16T04:41:04.230Z,100581.67
2019-01-16T04:44:04.306Z,100572.64
2019-01-16T04:46:51.866Z,100574.03
2019-01-16T04:49:46.560Z,100570.22
2019-01-16T04:52:27.460Z,100569.37
2019-01-16T04:55:22.321Z,100566.96
2019-01-16T04:58:02.001Z,100557.57
2019-01-16T05:00:50.874Z,100556.72
2019-01-16T05:03:31.391Z,100559.86
2019-01-16T05:06:18.753Z,100569.35
2019-01-16T05:09:01.632Z,100560.59
2019-01-16T05:11:46.084Z,100557.23
2019-01-16T05:14:41.431Z,100558.87
2019-01-16T05:17:30.525Z,100561.31
2019-01-16T05:20:18.121Z,100559.05
2019-01-16T05:23:06.132Z,100553.09
2019-01-16T05:25:48.866Z,100549.69
2019-01-16T05:28:46.479Z,100551.50
2019-01-16T05:31:33.583Z,100542.56
2019-01-16T05:34:39.352Z,100554.23
2019-01-16T05:37:28.102Z,100545.48
2019-01-16T05:40:28.787Z,100553.81
2019-01-16T05:43:20.500Z,100547.86
2019-01-16T05:46:07.564Z,100535.06
2019-01-16T05:49:02.396Z,100533.16
2019-01-16T05:51:54.143Z,100533.83
2019-01-16T05:54:44.566Z,100530.11
2019-01-16T05:57:39.327Z,100523.44
2019-01-16T06:00:39.345Z,100531.02
2019-01-16T06:03:46.344Z,100533.61
2019-01-16T06:06:35.321Z,100524.61
2019-01-16T06:09:25.721Z,100528.91
2019-01-16T06:12:14.701Z,100519.73
2019-01-16T06:18:14.368Z,100512.58
2019-01-16T06:20:54.732Z,100508.37
2019-01-16T06:23:42.226Z,100514.33
2019-01-16T06:26:21.805Z,100512.18
2019-01-16T06:29:17.078Z,100513.56
2019-01-16T06:32:17.474Z,100518.76
2019-01-16T06:35:04.714Z,100506.78
2019-01-16T06:40:58.137Z,100502.88
2019-01-16T06:43:45.437Z,100503.97
2019-01-16T06:46:25.496Z,100505.71
2019-01-16T06:49:14.318Z,100496.36
2019-01-16T06:51:51.074Z,100496.50
2019-01-16T06:54:38.767Z,100495.20
2019-01-16T06:57:28.993Z,100498.34
2019-01-16T07:00:23.636Z,100494.63
2019-01-16T07:03:18.518Z,100488.73
2019-01-16T07:06:05.751Z,100486.99
2019-01-16T07:09:00.303Z,100487.98
2019-01-16T07:11:57.941Z,100489.00
2019-01-16T07:14:45.277Z,100486.02
2019-01-16T07:17:32.712Z,100490.45
2019-01-16T07:20:17.475Z,100487.94
2019-01-16T07:22:55.382Z,100497.33
2019-01-16T07:25:49.880Z,100491.20
2019-01-16T07:28:42.925Z,100496.78
2019-01-16T07:31:25.076Z,100489.91
2019-01-16T07:34:13.005Z,100495.09
2019-01-16T07:36:52.680Z,100490.22
2019-01-16T07:39:36.297Z,100497.33
2019-01-16T07:42:31.147Z,100493.22
2019-01-16T07:45:25.999Z,100494.87
2019-01-16T07:48:23.712Z,100494.42
2019-01-16T07:51:12.666Z,100494.82
2019-01-16T07:54:13.821Z,100486.20
2019-01-16T07:56:57.080Z,100490.98
2019-01-16T07:59:47.359Z,100497.02
2019-01-16T08:02:34.754Z,100487.70
2019-01-16T08:05:23.099Z,100494.28
2019-01-16T08:08:15.878Z,100496.39
2019-01-16T08:10:59.815Z,100496.57
2019-01-16T08:13:48.326Z,100491.16
2019-01-16T08:16:45.875Z,100491.92
2019-01-16T08:19:33.759Z,100495.27
2019-01-16T08:22:25.772Z,100492.59
2019-01-16T08:25:11.840Z,100493.44
2019-01-16T08:27:56.068Z,100491.08
2019-01-16T08:30:43.568Z,100489.78
2019-01-16T08:33:32.526Z,100494.82
2019-01-16T08:36:19.837Z,100494.60
2019-01-16T08:39:07.012Z,100483.08
2019-01-16T08:42:22.583Z,100489.56
2019-01-16T08:45:09.963Z,100482.95
2019-01-16T08:47:58.832Z,100479.60
2019-01-16T08:50:55.218Z,100492.56
2019-01-16T08:53:38.582Z,100474.81
2019-01-16T08:56:33.596Z,100474.81
2019-01-16T08:59:21.023Z,100496.94
2019-01-16T09:02:19.863Z,100489.70
2019-01-16T09:05:08.633Z,100481.61
2019-01-16T09:08:25.106Z,100484.34
2019-01-16T09:11:28.901Z,100485.33
2019-01-16T09:14:20.664Z,100478.79
2019-01-16T09:17:05.235Z,100476.65
2019-01-16T09:19:44.703Z,100476.65
2019-01-16T09:22:24.671Z,100474.05
2019-01-16T09:25:11.992Z,100473.12
2019-01-16T09:28:02.841Z,100470.70
2019-01-16T09:30:54.962Z,100470.25
2019-01-16T09:33:46.784Z,100468.88
2019-01-16T09:36:37.749Z,100468.88
2019-01-16T09:39:28.431Z,100454.98
2019-01-16T09:42:06.940Z,100456.58
2019-01-16T09:44:55.799Z,100450.64
2019-01-16T09:47:44.604Z,100451.48
2019-01-16T09:50:32.621Z,100452.69
2019-01-16T09:53:30.482Z,100455.68
2019-01-16T09:56:09.104Z,100447.81
2019-01-16T09:58:52.383Z,100443.39
2019-01-16T10:01:48.336Z,100435.52
2019-01-16T10:04:36.970Z,100438.56
2019-01-16T10:07:14.871Z,100432.78
2019-01-16T10:10:02.164Z,100432.52
2019-01-16T10:12:49.455Z,100425.59
2019-01-16T10:15:37.066Z,100427.64
2019-01-16T10:18:32.013Z,100421.25
2019-01-16T10:21:18.456Z,100424.59
2019-01-16T10:24:22.405Z,100417.48
2019-01-16T10:27:09.569Z,100416.95
2019-01-16T10:30:01.248Z,100418.55
2019-01-16T10:32:47.491Z,100411.97
2019-01-16T10:35:32.188Z,100400.00
2019-01-16T10:38:11.653Z,100404.43
2019-01-16T10:41:25.409Z,100399.09
2019-01-16T10:44:01.554Z,100400.84
2019-01-16T10:46:53.281Z,100405.19
2019-01-16T10:49:41.336Z,100395.08
2019-01-16T10:52:30.249Z,100385.25
2019-01-16T10:55:27.982Z,100381.36
2019-01-16T10:58:37.433Z,100376.66
2019-01-16T11:01:37.919Z,100372.08
2019-01-16T11:04:29.734Z,100363.75
2019-01-16T11:07:16.956Z,100362.55
2019-01-16T11:09:59.839Z,100362.06
2019-01-16T11:12:43.212Z,100350.39
2019-01-16T11:15:34.970Z,100351.63
2019-01-16T11:18:19.292Z,100340.41
2019-01-16T11:21:11.089Z,100344.94
2019-01-16T11:23:58.686Z,100336.67
2019-01-16T11:26:48.528Z,100341.70
2019-01-16T11:29:51.750Z,100330.79
2019-01-16T11:32:43.346Z,100334.23
2019-01-16T11:35:47.588Z,100318.81
2019-01-16T11:38:39.568Z,100322.37
2019-01-16T11:41:23.786Z,100327.16
2019-01-16T11:44:09.400Z,100317.63
2019-01-16T11:47:05.972Z,100312.72
2019-01-16T11:49:51.533Z,100300.56
2019-01-16T11:52:39.617Z,100298.73
2019-01-16T11:55:39.628Z,100300.41
2019-01-16T11:58:25.373Z,100293.65
2019-01-16T12:01:20.159Z,100290.70
2019-01-16T12:04:20.897Z,100287.56
2019-01-16T12:07:08.215Z,100278.57
2019-01-16T12:09:51.281Z,100264.46
2019-01-16T12:12:33.212Z,100259.82
2019-01-16T12:15:25.193Z,100265.96
2019-01-16T12:18:06.632Z,100258.93
2019-01-16T12:21:00.737Z,100260.61
2019-01-16T12:23:58.570Z,100246.89
2019-01-16T12:26:49.277Z,100238.56
2019-01-16T12:29:31.236Z,100228.80
2019-01-16T12:32:31.640Z,100231.78
2019-01-16T12:35:19.349Z,100222.52
2019-01-16T12:38:02.633Z,100223.00
2019-01-16T12:41:15.601Z,100204.84
2019-01-16T12:44:02.957Z,100201.70
2019-01-16T12:46:54.745Z,100194.11
2019-01-16T12:49:55.528Z,100173.55
2019-01-16T12:52:43.944Z,100173.55
2019-01-16T12:55:28.305Z,100176.44
2019-01-16T12:58:15.985Z,100166.22
2019-01-16T13:01:05.045Z,100169.47
2019-01-16T13:04:12.432Z,100165.28
2019-01-16T13:07:15.953Z,100167.13
2019-01-16T13:10:03.493Z,100165.03
2019-01-16T13:12:53.427Z,100162.05
2019-01-16T13:15:48.795Z,100152.77
2019-01-16T13:18:30.769Z,100153.61
2019-01-16T13:21:10.058Z,100144.63
2019-01-16T13:24:01.626Z,100139.25
2019-01-16T13:26:49.402Z,100132.83
2019-01-16T13:29:41.261Z,100135.16
2019-01-16T13:32:48.447Z,100128.87
2019-01-16T13:35:37.575Z,100124.52
2019-01-16T13:38:28.949Z,100120.92
2019-01-16T13:41:23.855Z,100110.55
2019-01-16T13:44:17.475Z,100097.38
2019-01-16T13:46:56.583Z,100083.66
2019-01-16T13:50:03.527Z,100071.08
2019-01-16T13:52:58.351Z,100076.45
2019-01-16T13:55:49.865Z,100081.81
2019-01-16T13:58:47.755Z,100078.86
2019-01-16T14:01:29.043Z,100074.13
2019-01-16T14:04:27.235Z,100075.59
2019-01-16T14:07:04.374Z,100068.30
2019-01-16T14:09:44.144Z,100070.03
2019-01-16T14:12:35.875Z,100066.14
2019-01-16T14:15:27.534Z,100058.84
2019-01-16T14:18:19.294Z,100055.33
2019-01-16T14:21:10.966Z,100056.79
2019-01-16T14:23:47.935Z,100060.33
2019-01-16T14:26:42.713Z,100064.94
2019-01-16T14:29:33.070Z,100062.89
2019-01-16T14:32:22.165Z,100062.25
2019-01-16T14:35:10.363Z,100058.27
2019-01-16T14:37:59.568Z,100070.30
2019-01-16T14:40:46.739Z,100060.40
2019-01-16T14:43:43.665Z,100050.48
2019-01-16T14:46:35.303Z,100044.30
2019-01-16T14:49:21.763Z,100036.78
2019-01-16T14:51:59.775Z,100041.87
2019-01-16T14:54:46.285Z,100042.88
2019-01-16T14:57:33.942Z,100045.28
2019-01-16T15:00:18.533Z,100028.62
2019-01-16T15:06:05.060Z,100019.36
2019-01-16T15:08:54.463Z,100033.97
2019-01-16T15:11:41.818Z,100026.00
2019-01-16T15:14:45.467Z,100012.69
2019-01-16T15:17:40.407Z,100015.38
2019-01-16T15:20:48.109Z,100018.03
2019-01-16T15:23:35.143Z,100011.30
2019-01-16T15:26:16.446Z,100005.98
2019-01-16T15:28:54.785Z,99997.11
2019-01-16T15:31:33.623Z,99997.11
2019-01-16T15:34:20.911Z,99995.07
2019-01-16T15:37:17.231Z,99989.05
2019-01-16T15:40:04.307Z,99994.78
2019-01-16T15:42:49.820Z,99972.46
2019-01-16T15:45:44.788Z,99976.28
2019-01-16T15:48:33.516Z,99967.67
2019-01-16T15:51:20.273Z,99960.80
2019-01-16T15:54:15.312Z,99953.67
2019-01-16T15:57:02.693Z,99950.80
2019-01-16T15:59:45.536Z,99955.63
2019-01-16T16:02:30.048Z,99958.21
2019-01-16T16:05:19.605Z,99961.71
2019-01-16T16:08:22.177Z,99962.81
2019-01-16T16:11:16.870Z,99952.55
2019-01-16T16:14:08.204Z,99949.67
2019-01-16T16:16:49.215Z,99954.20
2019-01-16T16:19:43.756Z,99944.48
2019-01-16T16:22:44.485Z,99940.22
2019-01-16T16:25:31.940Z,99934.13
2019-01-16T16:28:23.764Z,99938.37
2019-01-16T16:31:02.234Z,99917.84
2019-01-16T16:33:50.968Z,99922.92
2019-01-16T16:36:37.156Z,99917.45
2019-01-16T16:39:36.444Z,99911.08
2019-01-16T16:42:14.409Z,99906.45
2019-01-16T16:45:04.481Z,99919.30
2019-01-16T16:48:06.463Z,99901.08
2019-01-16T16:51:07.728Z,99901.08
2019-01-16T16:53:54.943Z,99896.38
2019-01-16T16:56:44.051Z,99905.15
2019-01-16T16:59:28.901Z,99882.46
2019-01-16T17:02:23.989Z,99882.46
2019-01-16T17:05:13.391Z,99890.06
2019-01-16T17:08:01.039Z,99892.66
2019-01-16T17:10:57.279Z,99890.81
2019-01-16T17:13:34.947Z,99900.23
2019-01-16T17:16:24.411Z,99889.52
2019-01-16T17:19:13.139Z,99893.95
2019-01-16T17:22:10.284Z,99885.98
2019-01-16T17:24:57.686Z,99883.33
2019-01-16T17:28:04.622Z,99884.69
2019-01-16T17:31:02.189Z,99872.58
2019-01-16T17:33:50.875Z,99875.62
2019-01-16T17:36:35.271Z,99866.30
2019-01-16T17:39:25.750Z,99857.05
2019-01-16T17:42:03.810Z,99860.64
2019-01-16T17:45:10.703Z,99839.92
2019-01-16T17:48:02.672Z,99833.83
2019-01-16T17:50:45.114Z,99830.30
2019-01-16T17:53:43.317Z,99829.48
2019-01-16T17:56:32.081Z,99819.94
2019-01-16T17:59:28.669Z,99818.19
2019-01-16T18:02:16.007Z,99807.38
2019-01-16T18:04:58.828Z,99796.45
2019-01-16T18:10:43.416Z,99783.86
2019-01-16T18:13:41.155Z,99777.13
2019-01-16T18:16:42.675Z,99774.05
2019-01-16T18:19:32.974Z,99771.95
2019-01-16T18:22:25.988Z,99775.35
2019-01-16T18:25:15.483Z,99775.73
2019-01-16T18:28:10.683Z,99776.83
2019-01-16T18:31:06.256Z,99773.43
2019-01-16T18:34:04.284Z,99771.19
2019-01-16T18:36:48.372Z,99777.56
2019-01-16T18:39:40.157Z,99779.42
2019-01-16T18:45:12.972Z,99777.11
2019-01-16T18:48:04.315Z,99766.47
2019-01-16T18:54:19.756Z,99768.05
2019-01-16T18:57:06.523Z,99759.72
2019-01-16T18:59:48.203Z,99754.36
2019-01-16T19:02:31.299Z,99749.98
2019-01-16T19:05:18.609Z,99744.64
2019-01-16T19:08:09.306Z,99747.78
2019-01-16T19:11:00.863Z,99742.05
2019-01-16T19:13:47.160Z,99738.52
2019-01-16T19:16:38.768Z,99737.32
2019-01-16T19:19:40.015Z,99721.11
2019-01-16T19:22:28.066Z,99720.77
2019-01-16T19:25:32.892Z,99721.29
2019-01-16T19:28:35.728Z,99724.19
2019-01-16T19:31:25.896Z,99717.72
2019-01-16T19:34:20.204Z,99719.92
2019-01-16T19:37:07.451Z,99709.84
2019-01-16T19:39:55.304Z,99698.36
2019-01-16T19:42:44.952Z,99680.60
2019-01-16T19:45:33.754Z,99674.97
2019-01-16T19:48:40.825Z,99671.43
2019-01-16T19:51:32.423Z,99669.95
2019-01-16T19:54:23.949Z,99668.55
2019-01-16T19:57:09.396Z,99654.87
2019-01-16T19:59:54.241Z,99649.05
2019-01-16T20:02:47.985Z,99642.27
2019-01-16T20:05:41.152Z,99639.05
2019-01-16T20:08:20.591Z,99645.17
2019-01-16T20:11:05.361Z,99641.18
2019-01-16T20:13:52.596Z,99651.33
2019-01-16T20:16:46.415Z,99654.13
2019-01-16T20:19:33.996Z,99655.43
2019-01-16T20:22:22.431Z,99645.06
2019-01-16T20:25:26.516Z,99633.86
2019-01-16T20:28:21.824Z,99638.03
2019-01-16T20:31:04.420Z,99656.17
2019-01-16T20:33:47.907Z,99653.96
2019-01-16T20:36:36.980Z,99656.91
2019-01-16T20:39:27.498Z,99654.88
2019-01-16T20:42:16.435Z,99650.64
2019-01-16T20:44:54.567Z,99652.84
2019-01-16T20:47:34.052Z,99645.08
2019-01-16T20:50:22.308Z,99644.27
2019-01-16T20:53:17.583Z,99625.47
2019-01-16T20:56:03.438Z,99617.14
2019-01-16T20:58:55.440Z,99625.64
2019-01-16T21:01:47.126Z,99623.27
2019-01-16T21:04:26.003Z,99621.52
2019-01-16T21:07:26.949Z,99612.80
2019-01-16T21:10:09.709Z,99614.47
2019-01-16T21:13:07.559Z,99603.27
2019-01-16T21:15:52.951Z,99592.53
2019-01-16T21:18:32.447Z,99591.23
2019-01-16T21:21:31.912Z,99592.34
2019-01-16T21:24:21.672Z,99594.04
2019-01-16T21:27:18.015Z,99583.85
2019-01-16T21:30:10.011Z,99598.88
2019-01-16T21:32:57.713Z,99581.30
2019-01-16T21:35:45.859Z,99584.08
2019-01-16T21:38:33.409Z,99583.27
2019-01-16T21:41:30.194Z,99575.33
2019-01-16T21:44:23.450Z,99575.78
2019-01-16T21:47:23.180Z,99563.95
2019-01-16T21:50:06.475Z,99563.40
2019-01-16T21:52:43.406Z,99562.56
2019-01-16T21:55:25.835Z,99544.54
2019-01-16T21:58:11.604Z,99550.63
2019-01-16T22:01:04.123Z,99544.08
2019-01-16T22:03:51.596Z,99536.31
2019-01-16T22:06:38.188Z,99545.27
2019-01-16T22:09:16.569Z,99540.66
2019-01-16T22:12:05.360Z,99542.52
2019-01-16T22:14:57.079Z,99541.49
2019-01-16T22:17:41.380Z,99538.98
2019-01-16T22:20:39.337Z,99535.48
2019-01-16T22:23:26.972Z,99540.20
2019-01-16T22:26:15.984Z,99534.75
2019-01-16T22:29:03.383Z,99534.12
2019-01-16T22:31:50.988Z,99532.66
2019-01-16T22:34:38.501Z,99528.32
2019-01-16T22:37:36.740Z,99524.27
2019-01-16T22:40:22.483Z,99526.69
2019-01-16T22:43:09.027Z,99539.34
2019-01-16T22:45:52.850Z,99550.99
2019-01-16T22:48:33.378Z,99563.58
2019-01-16T22:51:28.414Z,99554.34
2019-01-16T22:54:11.286Z,99552.56
2019-01-16T22:57:09.137Z,99562.18
2019-01-16T22:59:57.677Z,99551.48
2019-01-16T23:02:50.277Z,99556.66
2019-01-16T23:05:38.155Z,99552.49
2019-01-16T23:08:32.764Z,99554.09
2019-01-16T23:11:22.489Z,99558.33
2019-01-16T23:14:15.005Z,99561.76
2019-01-16T23:17:18.940Z,99558.89
2019-01-16T23:20:10.170Z,99553.71
2019-01-16T23:22:48.422Z,99549.38
2019-01-16T23:25:43.572Z,99551.51
2019-01-16T23:28:39.902Z,99551.97
2019-01-16T23:31:28.735Z,99541.16
2019-01-16T23:34:16.145Z,99545.84
2019-01-16T23:37:10.273Z,99540.95
2019-01-16T23:39:57.444Z,99539.77
2019-01-16T23:42:45.227Z,99536.79
2019-01-16T23:45:32.999Z,99531.16
2019-01-16T23:48:20.601Z,99540.29
2019-01-16T23:51:15.186Z,99537.34
2019-01-16T23:54:13.132Z,99541.79
2019-01-16T23:57:07.855Z,99530.60
2019-01-16T23:59:56.921Z,99536.72
